< < Back
Terminal Aerodrome Forecast


Current Version              Previous Versions:   1  2  3  4  5  6  7  8  9  

Terminal Aerodrome Forecast

644
FTUS42 KJAX 222340
TAFJAX
TAF
KJAX 222340Z 2300/2324 07011KT P6SM SCT022 BKN200
     FM230200 04006KT P6SM SCT018 BKN200
     FM231400 06014G21KT P6SM SCT020 BKN040=

Latest METAR

744
SAUS80 KWBC 230700 RRA
MTRJAX
METAR KJAX 230656Z 03005KT 8SM CLR 20/17 A3019 RMK AO2 SLP225
T02000172


USA.gov is the U.S. government's official web portal to all federal, state and local government web resources and services.